sensor_id;sensor_type;location;lat;lon;timestamp;pressure;altitude;pressure_sealevel;temperature;humidity
59487;BME280;45298;54.918;73.504;2023-02-19T00:00:04;101006.88;;;-20.17;75.20
59487;BME280;45298;54.918;73.504;2023-02-19T00:02:39;100993.41;;;-20.40;75.58
59487;BME280;45298;54.918;73.504;2023-02-19T00:05:09;101010.91;;;-20.31;75.91
59487;BME280;45298;54.918;73.504;2023-02-19T00:07:37;100917.75;;;-20.95;75.19
59487;BME280;45298;54.918;73.504;2023-02-19T00:10:06;101022.28;;;-20.37;75.09
59487;BME280;45298;54.918;73.504;2023-02-19T00:12:35;101009.69;;;-20.47;75.50
59487;BME280;45298;54.918;73.504;2023-02-19T00:15:04;101000.66;;;-20.55;75.83
59487;BME280;45298;54.918;73.504;2023-02-19T00:17:33;101034.06;;;-20.47;75.11
59487;BME280;45298;54.918;73.504;2023-02-19T00:20:02;101037.22;;;-20.50;75.31
59487;BME280;45298;54.918;73.504;2023-02-19T00:22:30;101038.59;;;-20.54;75.62
59487;BME280;45298;54.918;73.504;2023-02-19T00:24:59;100923.78;;;-21.25;75.12
59487;BME280;45298;54.918;73.504;2023-02-19T00:27:28;101035.00;;;-20.68;75.90
59487;BME280;45298;54.918;73.504;2023-02-19T00:29:56;101018.81;;;-20.81;75.43
59487;BME280;45298;54.918;73.504;2023-02-19T00:32:25;101056.81;;;-20.68;75.94
59487;BME280;45298;54.918;73.504;2023-02-19T00:34:54;101055.72;;;-20.72;75.36
59487;BME280;45298;54.918;73.504;2023-02-19T00:37:24;101034.09;;;-20.90;75.89
59487;BME280;45298;54.918;73.504;2023-02-19T00:39:53;101028.41;;;-20.98;75.10
59487;BME280;45298;54.918;73.504;2023-02-19T00:42:22;101031.19;;;-20.95;74.99
59487;BME280;45298;54.918;73.504;2023-02-19T00:44:50;100932.28;;;-21.56;75.27
59487;BME280;45298;54.918;73.504;2023-02-19T00:47:19;101062.06;;;-20.87;75.80
59487;BME280;45298;54.918;73.504;2023-02-19T00:49:48;101023.81;;;-21.14;75.43
59487;BME280;45298;54.918;73.504;2023-02-19T00:52:17;100936.75;;;-21.74;75.09
59487;BME280;45298;54.918;73.504;2023-02-19T00:54:45;101056.94;;;-21.09;75.57
59487;BME280;45298;54.918;73.504;2023-02-19T00:57:14;101053.28;;;-21.13;74.83
59487;BME280;45298;54.918;73.504;2023-02-19T00:59:43;101015.75;;;-21.41;75.51
59487;BME280;45298;54.918;73.504;2023-02-19T01:02:12;101045.38;;;-21.28;74.93
59487;BME280;45298;54.918;73.504;2023-02-19T01:04:41;100942.53;;;-21.85;75.28
59487;BME280;45298;54.918;73.504;2023-02-19T01:07:10;101074.59;;;-21.20;74.82
59487;BME280;45298;54.918;73.504;2023-02-19T01:09:39;101066.78;;;-21.23;75.21
59487;BME280;45298;54.918;73.504;2023-02-19T01:12:07;101028.22;;;-21.53;74.83
59487;BME280;45298;54.918;73.504;2023-02-19T01:14:36;101027.00;;;-21.58;74.57
59487;BME280;45298;54.918;73.504;2023-02-19T01:17:05;101032.66;;;-21.50;74.63
59487;BME280;45298;54.918;73.504;2023-02-19T01:19:34;101026.47;;;-21.54;75.32
59487;BME280;45298;54.918;73.504;2023-02-19T01:22:02;101051.19;;;-21.39;75.30
59487;BME280;45298;54.918;73.504;2023-02-19T01:24:31;100939.25;;;-22.05;75.14
59487;BME280;45298;54.918;73.504;2023-02-19T01:27:00;101072.56;;;-21.34;75.10
59487;BME280;45298;54.918;73.504;2023-02-19T01:29:29;101028.63;;;-21.59;74.63
59487;BME280;45298;54.918;73.504;2023-02-19T01:32:00;101050.91;;;-21.53;74.72
59487;BME280;45298;54.918;73.504;2023-02-19T01:34:29;101066.53;;;-21.47;74.87
59487;BME280;45298;54.918;73.504;2023-02-19T01:37:00;101065.66;;;-21.37;74.33
59487;BME280;45298;54.918;73.504;2023-02-19T01:39:29;101071.97;;;-21.32;74.50
59487;BME280;45298;54.918;73.504;2023-02-19T01:41:58;101035.19;;;-21.50;74.18
59487;BME280;45298;54.918;73.504;2023-02-19T01:46:56;100940.00;;;-22.16;74.20
59487;BME280;45298;54.918;73.504;2023-02-19T01:49:42;101057.84;;;-21.50;74.36
59487;BME280;45298;54.918;73.504;2023-02-19T01:52:31;101073.97;;;-21.48;74.75
59487;BME280;45298;54.918;73.504;2023-02-19T01:55:03;101078.13;;;-21.38;74.34
59487;BME280;45298;54.918;73.504;2023-02-19T01:57:36;101071.81;;;-21.54;74.01
59487;BME280;45298;54.918;73.504;2023-02-19T02:00:10;100953.72;;;-22.23;73.97
59487;BME280;45298;54.918;73.504;2023-02-19T02:02:41;100962.38;;;-22.30;74.11
59487;BME280;45298;54.918;73.504;2023-02-19T02:08:13;100964.50;;;-22.35;73.77
59487;BME280;45298;54.918;73.504;2023-02-19T02:11:02;101059.34;;;-21.83;74.37
59487;BME280;45298;54.918;73.504;2023-02-19T02:13:32;101021.06;;;-22.00;73.86
59487;BME280;45298;54.918;73.504;2023-02-19T02:19:26;101102.56;;;-21.68;74.48
59487;BME280;45298;54.918;73.504;2023-02-19T02:22:05;101093.56;;;-21.85;74.38
59487;BME280;45298;54.918;73.504;2023-02-19T02:27:50;101064.59;;;-22.01;74.46
59487;BME280;45298;54.918;73.504;2023-02-19T02:30:35;101106.19;;;-21.75;74.66
59487;BME280;45298;54.918;73.504;2023-02-19T02:35:50;101107.06;;;-21.75;74.12
59487;BME280;45298;54.918;73.504;2023-02-19T02:38:26;100967.88;;;-22.55;73.91
59487;BME280;45298;54.918;73.504;2023-02-19T02:40:56;101100.72;;;-21.90;73.91
59487;BME280;45298;54.918;73.504;2023-02-19T02:43:26;101115.47;;;-21.84;73.72
59487;BME280;45298;54.918;73.504;2023-02-19T02:45:54;101084.59;;;-22.02;73.63
59487;BME280;45298;54.918;73.504;2023-02-19T02:48:39;101115.72;;;-21.92;73.87
59487;BME280;45298;54.918;73.504;2023-02-19T02:51:24;101114.72;;;-21.94;73.77
59487;BME280;45298;54.918;73.504;2023-02-19T02:57:01;101049.41;;;-22.32;74.12
59487;BME280;45298;54.918;73.504;2023-02-19T02:59:36;101081.44;;;-22.10;73.78
59487;BME280;45298;54.918;73.504;2023-02-19T03:02:12;101078.16;;;-22.09;73.58
59487;BME280;45298;54.918;73.504;2023-02-19T03:08:06;101115.25;;;-21.87;73.82
59487;BME280;45298;54.918;73.504;2023-02-19T03:10:54;101116.75;;;-21.90;73.72
59487;BME280;45298;54.918;73.504;2023-02-19T03:13:29;101115.72;;;-21.92;73.31
59487;BME280;45298;54.918;73.504;2023-02-19T03:16:23;101068.38;;;-22.06;73.71
59487;BME280;45298;54.918;73.504;2023-02-19T03:19:15;101065.50;;;-22.00;73.66
59487;BME280;45298;54.918;73.504;2023-02-19T03:24:30;101127.09;;;-21.76;72.84
59487;BME280;45298;54.918;73.504;2023-02-19T03:27:20;101112.84;;;-21.76;72.92
59487;BME280;45298;54.918;73.504;2023-02-19T03:29:57;101119.78;;;-21.73;73.09
59487;BME280;45298;54.918;73.504;2023-02-19T03:32:34;101078.47;;;-21.85;73.42
59487;BME280;45298;54.918;73.504;2023-02-19T03:35:09;101077.22;;;-21.80;73.42
59487;BME280;45298;54.918;73.504;2023-02-19T03:37:56;101075.09;;;-21.45;72.65
59487;BME280;45298;54.918;73.504;2023-02-19T03:40:36;101067.53;;;-20.60;73.16
59487;BME280;45298;54.918;73.504;2023-02-19T03:45:54;101002.25;;;-19.67;70.85
59487;BME280;45298;54.918;73.504;2023-02-19T03:48:35;101125.34;;;-18.38;70.19
59487;BME280;45298;54.918;73.504;2023-02-19T03:51:35;101092.19;;;-17.92;69.06
59487;BME280;45298;54.918;73.504;2023-02-19T03:54:21;101128.22;;;-17.22;68.67
59487;BME280;45298;54.918;73.504;2023-02-19T04:02:23;101080.34;;;-17.68;68.07
59487;BME280;45298;54.918;73.504;2023-02-19T04:05:14;101079.50;;;-17.80;68.66
59487;BME280;45298;54.918;73.504;2023-02-19T04:07:51;101090.88;;;-17.87;69.48
59487;BME280;45298;54.918;73.504;2023-02-19T04:10:27;101054.97;;;-18.18;69.62
59487;BME280;45298;54.918;73.504;2023-02-19T04:13:04;101096.97;;;-17.97;69.53
59487;BME280;45298;54.918;73.504;2023-02-19T04:15:35;100988.22;;;-18.68;68.96
59487;BME280;45298;54.918;73.504;2023-02-19T04:18:12;101079.28;;;-18.20;69.69
59487;BME280;45298;54.918;73.504;2023-02-19T04:20:44;101112.75;;;-18.01;69.45
59487;BME280;45298;54.918;73.504;2023-02-19T04:23:16;101086.00;;;-18.21;69.34
59487;BME280;45298;54.918;73.504;2023-02-19T04:25:51;101071.41;;;-18.37;69.17
59487;BME280;45298;54.918;73.504;2023-02-19T04:28:22;101108.59;;;-18.24;69.56
59487;BME280;45298;54.918;73.504;2023-02-19T04:30:51;101116.75;;;-18.16;69.26
59487;BME280;45298;54.918;73.504;2023-02-19T04:33:19;101074.78;;;-18.36;69.57
59487;BME280;45298;54.918;73.504;2023-02-19T04:35:48;101121.44;;;-18.09;69.77
59487;BME280;45298;54.918;73.504;2023-02-19T04:38:17;101107.47;;;-18.16;69.86
59487;BME280;45298;54.918;73.504;2023-02-19T04:40:46;101107.91;;;-17.98;69.31
59487;BME280;45298;54.918;73.504;2023-02-19T04:43:15;101075.00;;;-18.10;69.77
59487;BME280;45298;54.918;73.504;2023-02-19T04:45:43;101076.59;;;-17.98;69.43
59487;BME280;45298;54.918;73.504;2023-02-19T04:48:12;101102.31;;;-17.80;69.67
59487;BME280;45298;54.918;73.504;2023-02-19T04:50:42;101043.06;;;-18.07;69.40
59487;BME280;45298;54.918;73.504;2023-02-19T04:53:10;101069.91;;;-17.98;68.97
59487;BME280;45298;54.918;73.504;2023-02-19T04:55:39;101093.06;;;-17.91;69.27
59487;BME280;45298;54.918;73.504;2023-02-19T04:58:08;101122.03;;;-17.76;69.74
59487;BME280;45298;54.918;73.504;2023-02-19T05:00:37;101084.25;;;-17.85;68.94
59487;BME280;45298;54.918;73.504;2023-02-19T05:03:06;101074.56;;;-17.90;69.38
59487;BME280;45298;54.918;73.504;2023-02-19T05:05:34;101093.16;;;-17.78;69.29
59487;BME280;45298;54.918;73.504;2023-02-19T05:08:03;101069.06;;;-17.85;69.26
59487;BME280;45298;54.918;73.504;2023-02-19T05:10:32;101082.88;;;-17.68;69.20
59487;BME280;45298;54.918;73.504;2023-02-19T05:13:01;101119.47;;;-17.39;69.59
59487;BME280;45298;54.918;73.504;2023-02-19T05:15:30;101106.59;;;-17.42;68.95
59487;BME280;45298;54.918;73.504;2023-02-19T05:17:59;101114.03;;;-17.32;68.63
59487;BME280;45298;54.918;73.504;2023-02-19T05:20:28;101122.31;;;-17.09;68.73
59487;BME280;45298;54.918;73.504;2023-02-19T05:22:56;101010.34;;;-17.66;69.06
59487;BME280;45298;54.918;73.504;2023-02-19T05:25:25;100998.31;;;-17.56;69.00
59487;BME280;45298;54.918;73.504;2023-02-19T05:27:54;101122.47;;;-16.67;68.41
59487;BME280;45298;54.918;73.504;2023-02-19T05:30:51;101089.56;;;-16.65;68.74
59487;BME280;45298;54.918;73.504;2023-02-19T05:33:22;101103.03;;;-16.53;67.84
59487;BME280;45298;54.918;73.504;2023-02-19T05:35:54;101022.28;;;-16.86;68.30
59487;BME280;45298;54.918;73.504;2023-02-19T05:38:23;100954.66;;;-17.12;67.95
59487;BME280;45298;54.918;73.504;2023-02-19T05:40:52;101126.69;;;-16.00;68.62
59487;BME280;45298;54.918;73.504;2023-02-19T05:43:21;101132.66;;;-15.71;68.10
59487;BME280;45298;54.918;73.504;2023-02-19T05:45:52;101093.53;;;-15.73;67.37
59487;BME280;45298;54.918;73.504;2023-02-19T05:48:20;101112.97;;;-15.32;67.76
59487;BME280;45298;54.918;73.504;2023-02-19T05:50:49;101090.00;;;-15.33;67.40
59487;BME280;45298;54.918;73.504;2023-02-19T05:53:20;101081.16;;;-15.10;66.96
59487;BME280;45298;54.918;73.504;2023-02-19T05:55:48;101103.22;;;-14.81;67.04
59487;BME280;45298;54.918;73.504;2023-02-19T05:58:17;101098.97;;;-14.65;66.91
59487;BME280;45298;54.918;73.504;2023-02-19T06:00:46;101034.53;;;-14.79;66.21
59487;BME280;45298;54.918;73.504;2023-02-19T06:03:15;101143.53;;;-14.12;66.42
59487;BME280;45298;54.918;73.504;2023-02-19T06:05:44;101125.16;;;-14.21;66.11
59487;BME280;45298;54.918;73.504;2023-02-19T06:08:13;101140.19;;;-14.11;65.92
59487;BME280;45298;54.918;73.504;2023-02-19T06:10:42;101132.56;;;-14.11;66.10
59487;BME280;45298;54.918;73.504;2023-02-19T06:13:11;101094.63;;;-14.36;65.69
59487;BME280;45298;54.918;73.504;2023-02-19T06:15:41;101124.59;;;-14.32;65.37
59487;BME280;45298;54.918;73.504;2023-02-19T06:18:10;101090.88;;;-14.43;65.70
59487;BME280;45298;54.918;73.504;2023-02-19T06:20:42;101102.81;;;-14.42;65.42
59487;BME280;45298;54.918;73.504;2023-02-19T06:23:11;101118.25;;;-14.39;65.64
59487;BME280;45298;54.918;73.504;2023-02-19T06:25:40;101147.44;;;-14.19;65.78
59487;BME280;45298;54.918;73.504;2023-02-19T06:28:10;101135.09;;;-14.11;65.69
59487;BME280;45298;54.918;73.504;2023-02-19T06:30:38;101142.97;;;-13.91;65.88
59487;BME280;45298;54.918;73.504;2023-02-19T06:33:07;101148.03;;;-13.76;65.51
59487;BME280;45298;54.918;73.504;2023-02-19T06:35:36;101131.66;;;-13.80;64.93
59487;BME280;45298;54.918;73.504;2023-02-19T06:38:05;101105.19;;;-13.82;65.16
59487;BME280;45298;54.918;73.504;2023-02-19T06:40:33;101127.56;;;-13.61;65.41
59487;BME280;45298;54.918;73.504;2023-02-19T06:43:02;101100.63;;;-13.56;64.85
59487;BME280;45298;54.918;73.504;2023-02-19T06:45:31;101127.00;;;-13.23;65.49
59487;BME280;45298;54.918;73.504;2023-02-19T06:48:00;101105.16;;;-13.17;64.46
59487;BME280;45298;54.918;73.504;2023-02-19T06:50:29;101104.47;;;-12.97;64.49
59487;BME280;45298;54.918;73.504;2023-02-19T06:52:58;101109.19;;;-12.70;65.00
59487;BME280;45298;54.918;73.504;2023-02-19T06:55:26;101127.22;;;-12.32;64.17
59487;BME280;45298;54.918;73.504;2023-02-19T06:57:55;101116.78;;;-12.19;63.36
59487;BME280;45298;54.918;73.504;2023-02-19T07:00:24;101116.28;;;-12.11;63.80
59487;BME280;45298;54.918;73.504;2023-02-19T07:02:53;101113.31;;;-12.01;64.11
59487;BME280;45298;54.918;73.504;2023-02-19T07:05:23;101108.97;;;-11.84;63.08
59487;BME280;45298;54.918;73.504;2023-02-19T07:07:52;101125.91;;;-11.68;63.99
59487;BME280;45298;54.918;73.504;2023-02-19T07:10:21;101117.78;;;-11.59;64.10
59487;BME280;45298;54.918;73.504;2023-02-19T07:12:50;101120.59;;;-11.53;63.42
59487;BME280;45298;54.918;73.504;2023-02-19T07:15:19;101112.06;;;-11.54;63.79
59487;BME280;45298;54.918;73.504;2023-02-19T07:17:51;101091.84;;;-11.47;63.41
59487;BME280;45298;54.918;73.504;2023-02-19T07:20:19;101115.97;;;-11.23;63.59
59487;BME280;45298;54.918;73.504;2023-02-19T07:22:48;101097.88;;;-11.26;63.35
59487;BME280;45298;54.918;73.504;2023-02-19T07:25:17;101097.09;;;-11.25;61.94
59487;BME280;45298;54.918;73.504;2023-02-19T07:27:49;101098.66;;;-11.28;63.17
59487;BME280;45298;54.918;73.504;2023-02-19T07:30:18;101095.28;;;-11.27;62.78
59487;BME280;45298;54.918;73.504;2023-02-19T07:32:46;101089.88;;;-11.33;62.23
59487;BME280;45298;54.918;73.504;2023-02-19T07:35:15;101082.41;;;-11.29;62.91
59487;BME280;45298;54.918;73.504;2023-02-19T07:37:44;101090.81;;;-11.12;62.20
59487;BME280;45298;54.918;73.504;2023-02-19T07:40:13;101076.72;;;-11.21;62.46
59487;BME280;45298;54.918;73.504;2023-02-19T07:42:42;101068.84;;;-11.06;62.25
59487;BME280;45298;54.918;73.504;2023-02-19T07:45:11;101089.44;;;-10.84;61.50
59487;BME280;45298;54.918;73.504;2023-02-19T07:47:40;101094.31;;;-10.69;61.55
59487;BME280;45298;54.918;73.504;2023-02-19T07:50:09;101114.19;;;-10.42;61.52
59487;BME280;45298;54.918;73.504;2023-02-19T07:52:40;101062.97;;;-10.61;61.26
59487;BME280;45298;54.918;73.504;2023-02-19T07:55:09;101089.00;;;-10.52;61.78
59487;BME280;45298;54.918;73.504;2023-02-19T07:57:37;101100.63;;;-10.60;61.26
59487;BME280;45298;54.918;73.504;2023-02-19T08:00:06;101076.53;;;-10.85;60.90
59487;BME280;45298;54.918;73.504;2023-02-19T08:02:41;101079.81;;;-10.89;62.12
59487;BME280;45298;54.918;73.504;2023-02-19T08:05:31;101116.00;;;-10.60;61.18
59487;BME280;45298;54.918;73.504;2023-02-19T08:08:00;101071.47;;;-10.63;61.66
59487;BME280;45298;54.918;73.504;2023-02-19T08:10:28;101108.47;;;-10.35;61.09
59487;BME280;45298;54.918;73.504;2023-02-19T08:13:16;101070.25;;;-10.51;60.24
59487;BME280;45298;54.918;73.504;2023-02-19T08:16:11;101080.28;;;-10.56;60.46
59487;BME280;45298;54.918;73.504;2023-02-19T08:18:48;100998.34;;;-10.97;61.15
59487;BME280;45298;54.918;73.504;2023-02-19T08:21:17;101107.19;;;-10.46;60.21
59487;BME280;45298;54.918;73.504;2023-02-19T08:23:46;101084.16;;;-10.66;61.76
59487;BME280;45298;54.918;73.504;2023-02-19T08:26:17;101108.31;;;-10.60;61.82
59487;BME280;45298;54.918;73.504;2023-02-19T08:28:47;101086.25;;;-10.78;61.58
59487;BME280;45298;54.918;73.504;2023-02-19T08:31:16;101067.75;;;-10.71;61.97
59487;BME280;45298;54.918;73.504;2023-02-19T08:33:45;101075.16;;;-10.56;61.43
59487;BME280;45298;54.918;73.504;2023-02-19T08:36:13;101104.31;;;-10.54;60.48
59487;BME280;45298;54.918;73.504;2023-02-19T08:38:42;101076.25;;;-10.72;61.00
59487;BME280;45298;54.918;73.504;2023-02-19T08:41:14;101071.63;;;-10.81;60.50
59487;BME280;45298;54.918;73.504;2023-02-19T08:43:43;101102.47;;;-10.78;61.04
59487;BME280;45298;54.918;73.504;2023-02-19T08:46:12;101101.56;;;-10.80;60.05
59487;BME280;45298;54.918;73.504;2023-02-19T08:48:41;101113.44;;;-10.82;60.66
59487;BME280;45298;54.918;73.504;2023-02-19T08:51:10;101114.16;;;-10.84;61.06
59487;BME280;45298;54.918;73.504;2023-02-19T08:53:40;101084.56;;;-10.97;60.31
59487;BME280;45298;54.918;73.504;2023-02-19T08:56:11;101083.75;;;-11.17;60.58
59487;BME280;45298;54.918;73.504;2023-02-19T08:58:41;101114.91;;;-11.28;61.04
59487;BME280;45298;54.918;73.504;2023-02-19T09:01:12;101078.97;;;-11.49;60.64
59487;BME280;45298;54.918;73.504;2023-02-19T09:03:41;101112.72;;;-11.38;61.30
59487;BME280;45298;54.918;73.504;2023-02-19T09:06:16;101084.16;;;-11.47;61.81
59487;BME280;45298;54.918;73.504;2023-02-19T09:08:44;101110.50;;;-11.30;59.99
59487;BME280;45298;54.918;73.504;2023-02-19T09:11:13;101078.09;;;-11.49;61.29
59487;BME280;45298;54.918;73.504;2023-02-19T09:13:43;101079.44;;;-11.58;61.89
59487;BME280;45298;54.918;73.504;2023-02-19T09:16:11;101091.09;;;-11.45;62.13
59487;BME280;45298;54.918;73.504;2023-02-19T09:18:40;101093.84;;;-11.40;62.27
59487;BME280;45298;54.918;73.504;2023-02-19T09:21:09;101084.16;;;-11.47;60.71
59487;BME280;45298;54.918;73.504;2023-02-19T09:23:38;101116.44;;;-11.31;61.21
59487;BME280;45298;54.918;73.504;2023-02-19T09:26:08;101100.19;;;-11.51;62.24
59487;BME280;45298;54.918;73.504;2023-02-19T09:28:38;101069.44;;;-11.91;61.18
59487;BME280;45298;54.918;73.504;2023-02-19T09:31:14;101098.94;;;-11.79;61.08
59487;BME280;45298;54.918;73.504;2023-02-19T09:33:47;101111.56;;;-11.64;62.05
59487;BME280;45298;54.918;73.504;2023-02-19T09:36:16;101072.41;;;-11.81;62.72
59487;BME280;45298;54.918;73.504;2023-02-19T09:38:46;101120.41;;;-11.58;62.05
59487;BME280;45298;54.918;73.504;2023-02-19T09:44:00;101118.50;;;-11.62;61.38
59487;BME280;45298;54.918;73.504;2023-02-19T09:46:39;101088.25;;;-11.71;61.71
59487;BME280;45298;54.918;73.504;2023-02-19T09:49:18;101098.31;;;-11.56;62.41
59487;BME280;45298;54.918;73.504;2023-02-19T09:51:53;101083.13;;;-11.71;63.03
59487;BME280;45298;54.918;73.504;2023-02-19T09:54:26;101108.56;;;-11.74;62.56
59487;BME280;45298;54.918;73.504;2023-02-19T09:56:56;101101.47;;;-11.99;62.48
59487;BME280;45298;54.918;73.504;2023-02-19T09:59:39;101110.75;;;-12.01;63.12
59487;BME280;45298;54.918;73.504;2023-02-19T10:02:15;101110.50;;;-12.07;63.74
59487;BME280;45298;54.918;73.504;2023-02-19T10:04:45;101078.94;;;-12.26;63.37
59487;BME280;45298;54.918;73.504;2023-02-19T10:07:20;101086.72;;;-12.23;63.76
59487;BME280;45298;54.918;73.504;2023-02-19T10:10:28;101123.34;;;-12.06;62.92
59487;BME280;45298;54.918;73.504;2023-02-19T10:12:52;101099.97;;;-12.13;64.24
59487;BME280;45298;54.918;73.504;2023-02-19T10:15:23;101110.09;;;-12.15;63.72
59487;BME280;45298;54.918;73.504;2023-02-19T10:17:54;101108.78;;;-12.25;63.37
59487;BME280;45298;54.918;73.504;2023-02-19T10:20:24;101121.97;;;-12.17;64.39
59487;BME280;45298;54.918;73.504;2023-02-19T10:23:09;101115.97;;;-12.18;64.28
59487;BME280;45298;54.918;73.504;2023-02-19T10:26:04;101110.44;;;-12.27;64.70
59487;BME280;45298;54.918;73.504;2023-02-19T10:28:32;101089.97;;;-12.27;64.04
59487;BME280;45298;54.918;73.504;2023-02-19T10:31:06;101081.34;;;-12.29;63.91
59487;BME280;45298;54.918;73.504;2023-02-19T10:33:50;101055.03;;;-12.45;64.43
59487;BME280;45298;54.918;73.504;2023-02-19T10:36:40;101072.22;;;-12.42;64.28
59487;BME280;45298;54.918;73.504;2023-02-19T10:41:50;101090.41;;;-12.36;65.14
59487;BME280;45298;54.918;73.504;2023-02-19T10:44:28;101089.53;;;-12.36;64.35
59487;BME280;45298;54.918;73.504;2023-02-19T10:46:59;101043.13;;;-12.62;65.08
59487;BME280;45298;54.918;73.504;2023-02-19T10:49:31;101098.44;;;-12.28;65.77
59487;BME280;45298;54.918;73.504;2023-02-19T10:52:24;101095.75;;;-12.31;65.83
59487;BME280;45298;54.918;73.504;2023-02-19T10:57:48;101069.56;;;-12.43;65.75
59487;BME280;45298;54.918;73.504;2023-02-19T11:00:26;101092.13;;;-12.35;66.57
59487;BME280;45298;54.918;73.504;2023-02-19T11:03:20;101097.19;;;-12.36;65.72
59487;BME280;45298;54.918;73.504;2023-02-19T11:05:59;100970.91;;;-13.12;66.13
59487;BME280;45298;54.918;73.504;2023-02-19T11:08:30;101056.44;;;-12.69;66.31
59487;BME280;45298;54.918;73.504;2023-02-19T11:11:01;101060.75;;;-12.68;66.24
59487;BME280;45298;54.918;73.504;2023-02-19T11:13:32;101088.47;;;-12.58;66.68
59487;BME280;45298;54.918;73.504;2023-02-19T11:16:05;101046.69;;;-12.77;66.34
59487;BME280;45298;54.918;73.504;2023-02-19T11:18:34;101077.31;;;-12.60;66.76
59487;BME280;45298;54.918;73.504;2023-02-19T11:21:05;101070.22;;;-12.66;66.96
59487;BME280;45298;54.918;73.504;2023-02-19T11:23:36;101046.84;;;-12.73;67.71
59487;BME280;45298;54.918;73.504;2023-02-19T11:26:23;101056.34;;;-12.71;67.50
59487;BME280;45298;54.918;73.504;2023-02-19T11:28:58;101050.16;;;-12.76;67.16
59487;BME280;45298;54.918;73.504;2023-02-19T11:31:31;100968.56;;;-13.26;67.60
59487;BME280;45298;54.918;73.504;2023-02-19T11:37:08;101062.34;;;-12.70;67.86
59487;BME280;45298;54.918;73.504;2023-02-19T11:39:39;101071.13;;;-12.65;68.03
59487;BME280;45298;54.918;73.504;2023-02-19T11:42:34;101078.69;;;-12.67;67.55
59487;BME280;45298;54.918;73.504;2023-02-19T11:50:40;101045.81;;;-12.95;68.22
59487;BME280;45298;54.918;73.504;2023-02-19T11:53:31;101073.56;;;-12.85;67.84
59487;BME280;45298;54.918;73.504;2023-02-19T11:56:17;101052.44;;;-12.99;67.92
59487;BME280;45298;54.918;73.504;2023-02-19T12:08:04;101071.69;;;-13.06;68.84
59487;BME280;45298;54.918;73.504;2023-02-19T12:14:16;101042.19;;;-13.33;68.60
59487;BME280;45298;54.918;73.504;2023-02-19T12:25:28;101052.91;;;-13.41;69.26
59487;BME280;45298;54.918;73.504;2023-02-19T12:34:00;101088.00;;;-13.37;69.82
59487;BME280;45298;54.918;73.504;2023-02-19T12:36:48;101079.38;;;-13.39;69.89
59487;BME280;45298;54.918;73.504;2023-02-19T12:45:01;101027.09;;;-13.80;70.07
59487;BME280;45298;54.918;73.504;2023-02-19T12:47:38;101064.03;;;-13.57;69.77
59487;BME280;45298;54.918;73.504;2023-02-19T12:50:19;100966.34;;;-14.20;70.10
59487;BME280;45298;54.918;73.504;2023-02-19T12:52:54;101047.75;;;-13.75;69.93
59487;BME280;45298;54.918;73.504;2023-02-19T12:55:34;101014.16;;;-14.00;70.88
59487;BME280;45298;54.918;73.504;2023-02-19T12:58:05;101064.44;;;-13.65;70.25
59487;BME280;45298;54.918;73.504;2023-02-19T13:00:46;101060.59;;;-13.74;69.59
59487;BME280;45298;54.918;73.504;2023-02-19T13:08:53;101033.94;;;-13.95;70.35
59487;BME280;45298;54.918;73.504;2023-02-19T13:12:03;101051.50;;;-13.85;70.30
59487;BME280;45298;54.918;73.504;2023-02-19T13:14:39;101046.69;;;-13.95;70.75
59487;BME280;45298;54.918;73.504;2023-02-19T13:17:37;101063.28;;;-13.87;70.80
59487;BME280;45298;54.918;73.504;2023-02-19T13:32:48;101072.13;;;-13.80;70.95
59487;BME280;45298;54.918;73.504;2023-02-19T13:37:23;101055.53;;;-13.89;71.02
59487;BME280;45298;54.918;73.504;2023-02-19T13:40:02;101055.00;;;-13.83;71.95
59487;BME280;45298;54.918;73.504;2023-02-19T13:42:34;101048.78;;;-13.88;71.71
59487;BME280;45298;54.918;73.504;2023-02-19T13:45:05;101024.78;;;-13.92;71.47
59487;BME280;45298;54.918;73.504;2023-02-19T13:48:14;101059.84;;;-13.71;71.55
59487;BME280;45298;54.918;73.504;2023-02-19T13:50:44;100999.25;;;-14.08;71.48
59487;BME280;45298;54.918;73.504;2023-02-19T13:59:24;101065.28;;;-13.65;71.38
59487;BME280;45298;54.918;73.504;2023-02-19T14:07:33;101056.28;;;-13.58;71.68
59487;BME280;45298;54.918;73.504;2023-02-19T14:10:08;101029.19;;;-13.73;71.67
59487;BME280;45298;54.918;73.504;2023-02-19T14:12:38;101007.97;;;-13.88;72.02
59487;BME280;45298;54.918;73.504;2023-02-19T14:15:47;101068.56;;;-13.51;72.19
59487;BME280;45298;54.918;73.504;2023-02-19T14:18:42;101061.88;;;-13.49;72.59
59487;BME280;45298;54.918;73.504;2023-02-19T14:21:23;100944.69;;;-14.12;72.27
59487;BME280;45298;54.918;73.504;2023-02-19T14:23:56;101023.84;;;-13.61;72.21
59487;BME280;45298;54.918;73.504;2023-02-19T14:26:25;100947.47;;;-14.07;72.73
59487;BME280;45298;54.918;73.504;2023-02-19T14:28:55;101045.25;;;-13.41;72.65
59487;BME280;45298;54.918;73.504;2023-02-19T14:31:32;101049.53;;;-13.40;72.65
59487;BME280;45298;54.918;73.504;2023-02-19T14:36:57;101037.59;;;-13.41;72.44
59487;BME280;45298;54.918;73.504;2023-02-19T14:39:35;101023.66;;;-13.47;72.65
59487;BME280;45298;54.918;73.504;2023-02-19T14:42:17;101053.44;;;-13.30;72.76
59487;BME280;45298;54.918;73.504;2023-02-19T14:44:54;101008.97;;;-13.52;73.44
59487;BME280;45298;54.918;73.504;2023-02-19T14:47:26;101034.47;;;-13.35;73.46
59487;BME280;45298;54.918;73.504;2023-02-19T14:50:02;101034.38;;;-13.37;73.18
59487;BME280;45298;54.918;73.504;2023-02-19T14:52:47;101045.16;;;-13.26;72.80
59487;BME280;45298;54.918;73.504;2023-02-19T14:55:23;101002.28;;;-13.49;73.20
59487;BME280;45298;54.918;73.504;2023-02-19T14:57:54;101012.03;;;-13.42;73.95